Terminal Aerodrome Forecast
Issued by NWS

Current Version | Previous Version | Text Only | Print | Product List | Glossary Off
Versions: 1 2 3 4 5 6 7 8 9 10 11 12 13 14 15 16 17 18 19 20 21 22 23 24

000
FTUS41 KILN 151100 RRA
TAFLUK
TAF
KLUK 151155Z 1512/1612 00000KT P6SM BKN020
     FM151300 00000KT P6SM OVC019
     FM151400 15006KT P6SM OVC025
     FM151700 15009KT P6SM BKN025
     FM151900 15009KT P6SM SCT025 OVC250
     FM152300 15003KT P6SM -RA SCT025 OVC060
      TEMPO 1600/1604 BKN025
     FM160400 17003KT P6SM VCSH OVC022
     FM160700 17004KT 5SM BR VCSH OVC015=

USA.gov is the U.S. government's official web portal to all federal, state and local government web resources and services.